sensor_id;sensor_type;location;lat;lon;timestamp;temperature;humidity
22006;DHT22;11167;46.988;15.470;2023-07-16T00:01:32;27.10;72.90
22006;DHT22;11167;46.988;15.470;2023-07-16T00:03:33;27.10;72.90
22006;DHT22;11167;46.988;15.470;2023-07-16T00:05:36;27.00;72.80
22006;DHT22;11167;46.988;15.470;2023-07-16T00:07:39;27.00;72.80
22006;DHT22;11167;46.988;15.470;2023-07-16T00:09:40;27.00;72.80
22006;DHT22;11167;46.988;15.470;2023-07-16T00:11:41;26.90;72.80
22006;DHT22;11167;46.988;15.470;2023-07-16T00:13:42;26.90;72.80
22006;DHT22;11167;46.988;15.470;2023-07-16T00:15:46;26.90;72.80
22006;DHT22;11167;46.988;15.470;2023-07-16T00:17:47;26.90;72.70
22006;DHT22;11167;46.988;15.470;2023-07-16T00:19:48;26.80;72.70
22006;DHT22;11167;46.988;15.470;2023-07-16T00:21:49;26.80;72.70
22006;DHT22;11167;46.988;15.470;2023-07-16T00:23:50;26.80;72.70
22006;DHT22;11167;46.988;15.470;2023-07-16T00:25:51;26.80;72.70
22006;DHT22;11167;46.988;15.470;2023-07-16T00:27:52;26.70;72.60
22006;DHT22;11167;46.988;15.470;2023-07-16T00:29:53;26.70;72.60
22006;DHT22;11167;46.988;15.470;2023-07-16T00:31:55;26.70;72.60
22006;DHT22;11167;46.988;15.470;2023-07-16T00:33:56;26.60;72.50
22006;DHT22;11167;46.988;15.470;2023-07-16T00:35:58;26.60;72.50
22006;DHT22;11167;46.988;15.470;2023-07-16T00:37:59;26.60;72.50
22006;DHT22;11167;46.988;15.470;2023-07-16T00:40:00;26.60;72.60
22006;DHT22;11167;46.988;15.470;2023-07-16T00:42:01;26.60;72.60
22006;DHT22;11167;46.988;15.470;2023-07-16T00:44:02;26.50;72.60
22006;DHT22;11167;46.988;15.470;2023-07-16T00:46:03;26.50;72.60
22006;DHT22;11167;46.988;15.470;2023-07-16T00:48:06;26.50;72.50
22006;DHT22;11167;46.988;15.470;2023-07-16T00:50:14;26.40;72.40
22006;DHT22;11167;46.988;15.470;2023-07-16T00:52:16;26.40;72.40
22006;DHT22;11167;46.988;15.470;2023-07-16T00:54:19;26.40;72.50
22006;DHT22;11167;46.988;15.470;2023-07-16T00:56:21;26.30;72.30
22006;DHT22;11167;46.988;15.470;2023-07-16T00:58:22;26.30;72.40
22006;DHT22;11167;46.988;15.470;2023-07-16T01:00:23;26.30;72.40
22006;DHT22;11167;46.988;15.470;2023-07-16T01:02:24;26.20;72.30
22006;DHT22;11167;46.988;15.470;2023-07-16T01:04:25;26.20;72.40
22006;DHT22;11167;46.988;15.470;2023-07-16T01:06:41;26.20;72.50
22006;DHT22;11167;46.988;15.470;2023-07-16T01:08:58;26.20;72.30
22006;DHT22;11167;46.988;15.470;2023-07-16T01:10:57;26.20;72.40
22006;DHT22;11167;46.988;15.470;2023-07-16T01:12:59;26.10;72.30
22006;DHT22;11167;46.988;15.470;2023-07-16T01:15:01;26.10;72.30
22006;DHT22;11167;46.988;15.470;2023-07-16T01:17:04;26.10;72.30
22006;DHT22;11167;46.988;15.470;2023-07-16T01:19:07;26.10;72.40
22006;DHT22;11167;46.988;15.470;2023-07-16T01:21:08;26.00;72.30
22006;DHT22;11167;46.988;15.470;2023-07-16T01:23:37;26.00;72.30
22006;DHT22;11167;46.988;15.470;2023-07-16T01:28:27;25.90;72.30
22006;DHT22;11167;46.988;15.470;2023-07-16T01:30:43;25.90;72.30
22006;DHT22;11167;46.988;15.470;2023-07-16T01:32:46;25.80;72.50
22006;DHT22;11167;46.988;15.470;2023-07-16T01:34:48;25.80;72.30
22006;DHT22;11167;46.988;15.470;2023-07-16T01:36:50;25.80;72.30
22006;DHT22;11167;46.988;15.470;2023-07-16T01:38:51;25.80;72.30
22006;DHT22;11167;46.988;15.470;2023-07-16T01:40:52;25.80;73.20
22006;DHT22;11167;46.988;15.470;2023-07-16T01:42:53;25.70;72.20
22006;DHT22;11167;46.988;15.470;2023-07-16T01:44:54;25.70;72.20
22006;DHT22;11167;46.988;15.470;2023-07-16T01:49:12;25.70;72.20
22006;DHT22;11167;46.988;15.470;2023-07-16T01:51:14;25.60;72.20
22006;DHT22;11167;46.988;15.470;2023-07-16T01:53:15;25.60;72.20
22006;DHT22;11167;46.988;15.470;2023-07-16T01:55:16;25.60;72.20
22006;DHT22;11167;46.988;15.470;2023-07-16T01:57:17;25.60;72.20
22006;DHT22;11167;46.988;15.470;2023-07-16T01:59:18;25.60;72.20
22006;DHT22;11167;46.988;15.470;2023-07-16T02:01:20;25.50;72.20
22006;DHT22;11167;46.988;15.470;2023-07-16T02:03:21;25.50;72.20
22006;DHT22;11167;46.988;15.470;2023-07-16T02:05:22;25.50;72.20
22006;DHT22;11167;46.988;15.470;2023-07-16T02:07:23;25.50;72.20
22006;DHT22;11167;46.988;15.470;2023-07-16T02:09:25;25.50;72.20
22006;DHT22;11167;46.988;15.470;2023-07-16T02:11:26;25.40;72.10
22006;DHT22;11167;46.988;15.470;2023-07-16T02:13:27;25.40;73.00
22006;DHT22;11167;46.988;15.470;2023-07-16T02:15:28;25.40;72.10
22006;DHT22;11167;46.988;15.470;2023-07-16T02:17:30;25.40;72.10
22006;DHT22;11167;46.988;15.470;2023-07-16T02:19:31;25.30;72.10
22006;DHT22;11167;46.988;15.470;2023-07-16T02:21:32;25.30;72.10
22006;DHT22;11167;46.988;15.470;2023-07-16T02:23:33;25.30;72.20
22006;DHT22;11167;46.988;15.470;2023-07-16T02:25:35;25.30;72.20
22006;DHT22;11167;46.988;15.470;2023-07-16T02:27:36;25.20;72.00
22006;DHT22;11167;46.988;15.470;2023-07-16T02:29:37;25.20;72.10
22006;DHT22;11167;46.988;15.470;2023-07-16T02:31:38;25.20;72.10
22006;DHT22;11167;46.988;15.470;2023-07-16T02:33:39;25.20;72.10
22006;DHT22;11167;46.988;15.470;2023-07-16T02:35:40;25.20;72.10
22006;DHT22;11167;46.988;15.470;2023-07-16T02:37:44;25.10;72.10
22006;DHT22;11167;46.988;15.470;2023-07-16T02:39:45;25.10;72.20
22006;DHT22;11167;46.988;15.470;2023-07-16T02:41:50;25.10;72.10
22006;DHT22;11167;46.988;15.470;2023-07-16T02:43:59;25.10;72.20
22006;DHT22;11167;46.988;15.470;2023-07-16T02:46:01;25.00;72.10
22006;DHT22;11167;46.988;15.470;2023-07-16T02:48:02;25.00;72.20
22006;DHT22;11167;46.988;15.470;2023-07-16T02:50:04;25.00;72.20
22006;DHT22;11167;46.988;15.470;2023-07-16T02:52:06;25.00;72.20
22006;DHT22;11167;46.988;15.470;2023-07-16T02:54:08;25.00;72.20
22006;DHT22;11167;46.988;15.470;2023-07-16T02:56:09;24.90;72.10
22006;DHT22;11167;46.988;15.470;2023-07-16T02:58:10;24.90;72.10
22006;DHT22;11167;46.988;15.470;2023-07-16T03:00:11;24.90;71.40
22006;DHT22;11167;46.988;15.470;2023-07-16T03:02:12;24.90;72.20
22006;DHT22;11167;46.988;15.470;2023-07-16T03:04:13;24.90;72.20
22006;DHT22;11167;46.988;15.470;2023-07-16T03:06:14;24.80;72.20
22006;DHT22;11167;46.988;15.470;2023-07-16T03:08:15;24.80;72.20
22006;DHT22;11167;46.988;15.470;2023-07-16T03:10:17;24.80;72.20
22006;DHT22;11167;46.988;15.470;2023-07-16T03:12:19;24.80;72.20
22006;DHT22;11167;46.988;15.470;2023-07-16T03:14:20;24.80;72.30
22006;DHT22;11167;46.988;15.470;2023-07-16T03:16:21;24.80;72.20
22006;DHT22;11167;46.988;15.470;2023-07-16T03:18:29;24.70;72.20
22006;DHT22;11167;46.988;15.470;2023-07-16T03:20:30;24.70;72.30
22006;DHT22;11167;46.988;15.470;2023-07-16T03:22:31;24.70;72.30
22006;DHT22;11167;46.988;15.470;2023-07-16T03:24:32;24.70;72.30
22006;DHT22;11167;46.988;15.470;2023-07-16T03:26:33;24.60;72.30
22006;DHT22;11167;46.988;15.470;2023-07-16T03:28:35;24.60;72.30
22006;DHT22;11167;46.988;15.470;2023-07-16T03:30:36;24.60;72.30
22006;DHT22;11167;46.988;15.470;2023-07-16T03:32:38;24.60;72.30
22006;DHT22;11167;46.988;15.470;2023-07-16T03:34:39;24.60;73.10
22006;DHT22;11167;46.988;15.470;2023-07-16T03:36:40;24.50;72.30
22006;DHT22;11167;46.988;15.470;2023-07-16T03:38:42;24.50;72.30
22006;DHT22;11167;46.988;15.470;2023-07-16T03:40:48;24.50;72.30
22006;DHT22;11167;46.988;15.470;2023-07-16T03:42:49;24.50;72.30
22006;DHT22;11167;46.988;15.470;2023-07-16T03:44:50;24.50;72.30
22006;DHT22;11167;46.988;15.470;2023-07-16T03:46:51;24.40;72.40
22006;DHT22;11167;46.988;15.470;2023-07-16T03:48:53;24.40;72.30
22006;DHT22;11167;46.988;15.470;2023-07-16T03:50:54;24.40;72.40
22006;DHT22;11167;46.988;15.470;2023-07-16T03:52:55;24.40;72.30
22006;DHT22;11167;46.988;15.470;2023-07-16T03:54:56;24.40;72.30
22006;DHT22;11167;46.988;15.470;2023-07-16T03:56:58;24.30;72.40
22006;DHT22;11167;46.988;15.470;2023-07-16T03:58:59;24.30;72.30
22006;DHT22;11167;46.988;15.470;2023-07-16T04:00:59;24.30;72.30
22006;DHT22;11167;46.988;15.470;2023-07-16T04:03:00;24.30;72.30
22006;DHT22;11167;46.988;15.470;2023-07-16T04:05:02;24.30;72.30
22006;DHT22;11167;46.988;15.470;2023-07-16T04:07:04;24.30;72.40
22006;DHT22;11167;46.988;15.470;2023-07-16T04:09:05;24.20;72.40
22006;DHT22;11167;46.988;15.470;2023-07-16T04:11:06;24.20;72.40
22006;DHT22;11167;46.988;15.470;2023-07-16T04:13:07;24.20;72.50
22006;DHT22;11167;46.988;15.470;2023-07-16T04:15:09;24.20;72.60
22006;DHT22;11167;46.988;15.470;2023-07-16T04:17:11;24.20;72.50
22006;DHT22;11167;46.988;15.470;2023-07-16T04:19:12;24.20;72.50
22006;DHT22;11167;46.988;15.470;2023-07-16T04:21:13;24.20;72.60
22006;DHT22;11167;46.988;15.470;2023-07-16T04:23:14;24.10;72.50
22006;DHT22;11167;46.988;15.470;2023-07-16T04:25:15;24.10;72.50
22006;DHT22;11167;46.988;15.470;2023-07-16T04:27:17;24.10;72.50
22006;DHT22;11167;46.988;15.470;2023-07-16T04:29:18;24.10;72.60
22006;DHT22;11167;46.988;15.470;2023-07-16T04:31:19;24.00;72.50
22006;DHT22;11167;46.988;15.470;2023-07-16T04:33:20;24.00;72.50
22006;DHT22;11167;46.988;15.470;2023-07-16T04:35:21;24.00;72.50
22006;DHT22;11167;46.988;15.470;2023-07-16T04:37:22;24.00;72.60
22006;DHT22;11167;46.988;15.470;2023-07-16T04:39:23;24.00;72.60
22006;DHT22;11167;46.988;15.470;2023-07-16T04:41:25;24.00;72.70
22006;DHT22;11167;46.988;15.470;2023-07-16T04:43:26;24.00;72.60
22006;DHT22;11167;46.988;15.470;2023-07-16T04:45:27;23.90;72.60
22006;DHT22;11167;46.988;15.470;2023-07-16T04:47:28;23.90;72.60
22006;DHT22;11167;46.988;15.470;2023-07-16T04:49:30;23.90;72.60
22006;DHT22;11167;46.988;15.470;2023-07-16T04:51:31;23.90;72.60
22006;DHT22;11167;46.988;15.470;2023-07-16T04:53:32;23.90;72.60
22006;DHT22;11167;46.988;15.470;2023-07-16T04:55:37;23.80;72.60
22006;DHT22;11167;46.988;15.470;2023-07-16T04:57:40;23.80;73.50
22006;DHT22;11167;46.988;15.470;2023-07-16T04:59:41;23.80;72.60
22006;DHT22;11167;46.988;15.470;2023-07-16T05:01:42;23.80;72.60
22006;DHT22;11167;46.988;15.470;2023-07-16T05:03:43;23.80;72.60
22006;DHT22;11167;46.988;15.470;2023-07-16T05:05:45;23.80;72.60
22006;DHT22;11167;46.988;15.470;2023-07-16T05:07:46;23.80;72.60
22006;DHT22;11167;46.988;15.470;2023-07-16T05:09:47;23.80;72.60
22006;DHT22;11167;46.988;15.470;2023-07-16T05:11:48;23.80;72.80
22006;DHT22;11167;46.988;15.470;2023-07-16T05:13:49;23.70;72.60
22006;DHT22;11167;46.988;15.470;2023-07-16T05:15:50;23.70;72.60
22006;DHT22;11167;46.988;15.470;2023-07-16T05:17:52;23.70;72.60
22006;DHT22;11167;46.988;15.470;2023-07-16T05:19:53;23.70;72.70
22006;DHT22;11167;46.988;15.470;2023-07-16T05:21:54;23.70;72.70
22006;DHT22;11167;46.988;15.470;2023-07-16T05:23:55;23.70;72.70
22006;DHT22;11167;46.988;15.470;2023-07-16T05:25:56;23.70;73.50
22006;DHT22;11167;46.988;15.470;2023-07-16T05:27:57;23.70;72.70
22006;DHT22;11167;46.988;15.470;2023-07-16T05:29:58;23.60;72.60
22006;DHT22;11167;46.988;15.470;2023-07-16T05:31:59;23.70;72.80
22006;DHT22;11167;46.988;15.470;2023-07-16T05:34:00;23.60;72.70
22006;DHT22;11167;46.988;15.470;2023-07-16T05:36:01;23.60;72.70
22006;DHT22;11167;46.988;15.470;2023-07-16T05:38:02;23.60;72.70
22006;DHT22;11167;46.988;15.470;2023-07-16T05:40:05;23.60;72.80
22006;DHT22;11167;46.988;15.470;2023-07-16T05:42:08;23.60;72.70
22006;DHT22;11167;46.988;15.470;2023-07-16T05:44:10;23.60;72.70
22006;DHT22;11167;46.988;15.470;2023-07-16T05:46:11;23.50;72.60
22006;DHT22;11167;46.988;15.470;2023-07-16T05:48:12;23.60;72.70
22006;DHT22;11167;46.988;15.470;2023-07-16T05:50:14;23.50;72.40
22006;DHT22;11167;46.988;15.470;2023-07-16T05:52:15;23.50;72.70
22006;DHT22;11167;46.988;15.470;2023-07-16T05:54:16;23.50;72.80
22006;DHT22;11167;46.988;15.470;2023-07-16T05:56:17;23.50;72.70
22006;DHT22;11167;46.988;15.470;2023-07-16T05:58:19;23.50;72.70
22006;DHT22;11167;46.988;15.470;2023-07-16T06:00:20;23.50;72.70
22006;DHT22;11167;46.988;15.470;2023-07-16T06:02:22;23.50;72.70
22006;DHT22;11167;46.988;15.470;2023-07-16T06:04:23;23.50;72.80
22006;DHT22;11167;46.988;15.470;2023-07-16T06:06:26;23.50;72.70
22006;DHT22;11167;46.988;15.470;2023-07-16T06:08:27;23.50;72.70
22006;DHT22;11167;46.988;15.470;2023-07-16T06:10:28;23.50;72.70
22006;DHT22;11167;46.988;15.470;2023-07-16T06:12:29;23.50;72.70
22006;DHT22;11167;46.988;15.470;2023-07-16T06:14:30;23.50;72.70
22006;DHT22;11167;46.988;15.470;2023-07-16T06:16:31;23.40;72.60
22006;DHT22;11167;46.988;15.470;2023-07-16T06:18:32;23.50;72.70
22006;DHT22;11167;46.988;15.470;2023-07-16T06:20:34;23.50;72.80
22006;DHT22;11167;46.988;15.470;2023-07-16T06:22:36;23.50;72.80
22006;DHT22;11167;46.988;15.470;2023-07-16T06:24:38;23.40;72.70
22006;DHT22;11167;46.988;15.470;2023-07-16T06:26:39;23.40;72.80
22006;DHT22;11167;46.988;15.470;2023-07-16T06:28:40;23.50;72.80
22006;DHT22;11167;46.988;15.470;2023-07-16T06:30:41;23.50;72.80
22006;DHT22;11167;46.988;15.470;2023-07-16T06:32:42;23.50;72.80
22006;DHT22;11167;46.988;15.470;2023-07-16T06:34:43;23.50;72.90
22006;DHT22;11167;46.988;15.470;2023-07-16T06:36:44;23.50;72.80
22006;DHT22;11167;46.988;15.470;2023-07-16T06:38:45;23.40;72.80
22006;DHT22;11167;46.988;15.470;2023-07-16T06:40:51;23.50;72.90
22006;DHT22;11167;46.988;15.470;2023-07-16T06:42:53;23.50;72.90
22006;DHT22;11167;46.988;15.470;2023-07-16T06:44:54;23.40;73.00
22006;DHT22;11167;46.988;15.470;2023-07-16T06:46:56;23.50;73.00
22006;DHT22;11167;46.988;15.470;2023-07-16T06:48:58;23.50;73.00
22006;DHT22;11167;46.988;15.470;2023-07-16T06:50:59;23.50;73.10
22006;DHT22;11167;46.988;15.470;2023-07-16T06:53:00;23.50;73.10
22006;DHT22;11167;46.988;15.470;2023-07-16T06:55:02;23.50;73.20
22006;DHT22;11167;46.988;15.470;2023-07-16T06:57:03;23.50;73.10
22006;DHT22;11167;46.988;15.470;2023-07-16T06:59:04;23.50;73.20
22006;DHT22;11167;46.988;15.470;2023-07-16T07:01:05;23.50;73.20
22006;DHT22;11167;46.988;15.470;2023-07-16T07:03:06;23.50;73.20
22006;DHT22;11167;46.988;15.470;2023-07-16T07:05:07;23.50;73.20
22006;DHT22;11167;46.988;15.470;2023-07-16T07:07:15;23.50;73.20
22006;DHT22;11167;46.988;15.470;2023-07-16T07:09:16;23.50;73.30
22006;DHT22;11167;46.988;15.470;2023-07-16T07:11:18;23.50;73.30
22006;DHT22;11167;46.988;15.470;2023-07-16T07:13:19;23.60;73.50
22006;DHT22;11167;46.988;15.470;2023-07-16T07:15:20;23.60;73.50
22006;DHT22;11167;46.988;15.470;2023-07-16T07:17:21;23.60;73.70
22006;DHT22;11167;46.988;15.470;2023-07-16T07:19:23;23.60;73.70
22006;DHT22;11167;46.988;15.470;2023-07-16T07:21:24;23.60;73.70
22006;DHT22;11167;46.988;15.470;2023-07-16T07:23:25;23.70;73.80
22006;DHT22;11167;46.988;15.470;2023-07-16T07:25:26;23.70;73.80
22006;DHT22;11167;46.988;15.470;2023-07-16T07:27:27;23.70;73.90
22006;DHT22;11167;46.988;15.470;2023-07-16T07:29:28;23.70;73.90
22006;DHT22;11167;46.988;15.470;2023-07-16T07:31:29;23.70;74.00
22006;DHT22;11167;46.988;15.470;2023-07-16T07:33:30;23.70;74.90
22006;DHT22;11167;46.988;15.470;2023-07-16T07:35:33;23.80;74.20
22006;DHT22;11167;46.988;15.470;2023-07-16T07:37:34;23.80;74.20
22006;DHT22;11167;46.988;15.470;2023-07-16T07:39:35;23.80;74.20
22006;DHT22;11167;46.988;15.470;2023-07-16T07:41:36;23.80;74.30
22006;DHT22;11167;46.988;15.470;2023-07-16T07:43:37;23.80;74.30
22006;DHT22;11167;46.988;15.470;2023-07-16T07:45:38;23.80;73.50
22006;DHT22;11167;46.988;15.470;2023-07-16T07:47:39;23.80;74.30
22006;DHT22;11167;46.988;15.470;2023-07-16T07:49:39;23.90;74.50
22006;DHT22;11167;46.988;15.470;2023-07-16T07:51:41;23.90;74.50
22006;DHT22;11167;46.988;15.470;2023-07-16T07:53:42;23.90;74.50
22006;DHT22;11167;46.988;15.470;2023-07-16T07:55:43;23.90;74.50
22006;DHT22;11167;46.988;15.470;2023-07-16T07:57:44;23.90;75.20
22006;DHT22;11167;46.988;15.470;2023-07-16T07:59:45;24.00;74.70
22006;DHT22;11167;46.988;15.470;2023-07-16T08:01:46;24.00;74.70
22006;DHT22;11167;46.988;15.470;2023-07-16T08:03:47;24.00;74.70
22006;DHT22;11167;46.988;15.470;2023-07-16T08:05:49;24.00;75.60
22006;DHT22;11167;46.988;15.470;2023-07-16T08:07:50;24.00;74.80
22006;DHT22;11167;46.988;15.470;2023-07-16T08:09:53;24.00;74.80
22006;DHT22;11167;46.988;15.470;2023-07-16T08:11:55;24.10;74.90
22006;DHT22;11167;46.988;15.470;2023-07-16T08:13:56;24.10;74.90
22006;DHT22;11167;46.988;15.470;2023-07-16T08:15:57;24.10;74.90
22006;DHT22;11167;46.988;15.470;2023-07-16T08:17:59;24.10;74.90
22006;DHT22;11167;46.988;15.470;2023-07-16T08:20:01;24.10;75.00
22006;DHT22;11167;46.988;15.470;2023-07-16T08:22:03;24.10;75.00
22006;DHT22;11167;46.988;15.470;2023-07-16T08:24:07;24.20;75.10
22006;DHT22;11167;46.988;15.470;2023-07-16T08:26:09;24.20;75.10
22006;DHT22;11167;46.988;15.470;2023-07-16T08:28:12;24.30;75.20
22006;DHT22;11167;46.988;15.470;2023-07-16T08:30:14;24.30;76.90
22006;DHT22;11167;46.988;15.470;2023-07-16T08:32:15;24.30;75.30
22006;DHT22;11167;46.988;15.470;2023-07-16T08:34:16;24.30;75.30
22006;DHT22;11167;46.988;15.470;2023-07-16T08:36:17;24.30;76.10
22006;DHT22;11167;46.988;15.470;2023-07-16T08:38:18;24.30;75.30
22006;DHT22;11167;46.988;15.470;2023-07-16T08:40:19;24.30;75.30
22006;DHT22;11167;46.988;15.470;2023-07-16T08:42:22;24.40;75.40
22006;DHT22;11167;46.988;15.470;2023-07-16T08:44:24;24.40;75.50
22006;DHT22;11167;46.988;15.470;2023-07-16T08:46:26;24.40;75.50
22006;DHT22;11167;46.988;15.470;2023-07-16T08:48:28;24.50;75.50
22006;DHT22;11167;46.988;15.470;2023-07-16T08:50:30;24.50;75.50
22006;DHT22;11167;46.988;15.470;2023-07-16T08:52:31;24.50;75.50
22006;DHT22;11167;46.988;15.470;2023-07-16T08:54:33;24.60;75.60
22006;DHT22;11167;46.988;15.470;2023-07-16T08:56:34;24.60;75.60
22006;DHT22;11167;46.988;15.470;2023-07-16T08:58:36;24.60;75.50
22006;DHT22;11167;46.988;15.470;2023-07-16T09:00:38;24.60;75.50
22006;DHT22;11167;46.988;15.470;2023-07-16T09:02:39;24.60;75.60
22006;DHT22;11167;46.988;15.470;2023-07-16T09:04:41;24.60;75.60
22006;DHT22;11167;46.988;15.470;2023-07-16T09:06:42;24.70;75.70
22006;DHT22;11167;46.988;15.470;2023-07-16T09:08:43;24.70;75.70
22006;DHT22;11167;46.988;15.470;2023-07-16T09:10:56;24.70;75.70
22006;DHT22;11167;46.988;15.470;2023-07-16T09:12:50;24.80;75.70
22006;DHT22;11167;46.988;15.470;2023-07-16T09:14:51;24.80;75.70
22006;DHT22;11167;46.988;15.470;2023-07-16T09:16:53;24.80;75.70
22006;DHT22;11167;46.988;15.470;2023-07-16T09:18:55;24.90;75.80
22006;DHT22;11167;46.988;15.470;2023-07-16T09:20:57;24.80;75.70
22006;DHT22;11167;46.988;15.470;2023-07-16T09:22:59;24.90;75.80
22006;DHT22;11167;46.988;15.470;2023-07-16T09:25:01;24.90;75.80
22006;DHT22;11167;46.988;15.470;2023-07-16T09:27:02;24.90;75.80
22006;DHT22;11167;46.988;15.470;2023-07-16T09:29:06;25.00;75.80
22006;DHT22;11167;46.988;15.470;2023-07-16T09:31:08;25.00;76.00
22006;DHT22;11167;46.988;15.470;2023-07-16T09:33:10;25.00;76.00
22006;DHT22;11167;46.988;15.470;2023-07-16T09:35:16;25.10;76.00
22006;DHT22;11167;46.988;15.470;2023-07-16T09:37:18;25.10;76.00
22006;DHT22;11167;46.988;15.470;2023-07-16T09:39:20;25.10;76.00
22006;DHT22;11167;46.988;15.470;2023-07-16T09:41:21;25.10;76.00
22006;DHT22;11167;46.988;15.470;2023-07-16T09:43:22;25.20;76.20
22006;DHT22;11167;46.988;15.470;2023-07-16T09:45:23;25.20;76.10
22006;DHT22;11167;46.988;15.470;2023-07-16T09:47:24;25.20;76.10
22006;DHT22;11167;46.988;15.470;2023-07-16T09:49:30;25.30;76.30
22006;DHT22;11167;46.988;15.470;2023-07-16T09:51:31;25.30;76.30
22006;DHT22;11167;46.988;15.470;2023-07-16T09:53:34;25.30;76.30
22006;DHT22;11167;46.988;15.470;2023-07-16T09:55:37;25.40;76.30
22006;DHT22;11167;46.988;15.470;2023-07-16T09:57:41;25.40;76.30
22006;DHT22;11167;46.988;15.470;2023-07-16T09:59:43;25.50;76.50
22006;DHT22;11167;46.988;15.470;2023-07-16T10:01:47;25.50;76.40
22006;DHT22;11167;46.988;15.470;2023-07-16T10:03:49;25.50;76.40
22006;DHT22;11167;46.988;15.470;2023-07-16T10:05:51;25.50;76.40
22006;DHT22;11167;46.988;15.470;2023-07-16T10:07:54;25.60;76.50
22006;DHT22;11167;46.988;15.470;2023-07-16T10:09:57;25.60;76.50
22006;DHT22;11167;46.988;15.470;2023-07-16T10:14:24;25.70;76.60
22006;DHT22;11167;46.988;15.470;2023-07-16T10:16:22;25.70;76.60
22006;DHT22;11167;46.988;15.470;2023-07-16T10:18:30;25.80;76.60
22006;DHT22;11167;46.988;15.470;2023-07-16T10:20:36;25.80;76.60
22006;DHT22;11167;46.988;15.470;2023-07-16T10:22:42;25.80;76.60
22006;DHT22;11167;46.988;15.470;2023-07-16T10:24:44;25.80;76.60
22006;DHT22;11167;46.988;15.470;2023-07-16T10:26:45;25.90;76.60
22006;DHT22;11167;46.988;15.470;2023-07-16T10:28:46;25.90;76.60
22006;DHT22;11167;46.988;15.470;2023-07-16T10:30:49;25.90;76.30
22006;DHT22;11167;46.988;15.470;2023-07-16T10:32:51;26.00;76.70
22006;DHT22;11167;46.988;15.470;2023-07-16T10:34:56;26.00;76.70
22006;DHT22;11167;46.988;15.470;2023-07-16T10:36:57;26.10;76.70
22006;DHT22;11167;46.988;15.470;2023-07-16T10:39:07;26.10;76.70
22006;DHT22;11167;46.988;15.470;2023-07-16T10:41:05;26.10;76.10
22006;DHT22;11167;46.988;15.470;2023-07-16T10:43:07;26.20;76.90
22006;DHT22;11167;46.988;15.470;2023-07-16T10:45:08;26.20;77.00
22006;DHT22;11167;46.988;15.470;2023-07-16T10:47:18;26.20;76.90
22006;DHT22;11167;46.988;15.470;2023-07-16T10:49:28;26.30;77.00
22006;DHT22;11167;46.988;15.470;2023-07-16T10:51:29;26.30;77.00
22006;DHT22;11167;46.988;15.470;2023-07-16T10:53:30;26.40;77.10
22006;DHT22;11167;46.988;15.470;2023-07-16T10:55:33;26.40;77.10
22006;DHT22;11167;46.988;15.470;2023-07-16T10:57:36;26.40;77.00
22006;DHT22;11167;46.988;15.470;2023-07-16T10:59:38;26.50;77.10
22006;DHT22;11167;46.988;15.470;2023-07-16T11:01:41;26.50;77.10
22006;DHT22;11167;46.988;15.470;2023-07-16T11:03:43;26.60;77.20
22006;DHT22;11167;46.988;15.470;2023-07-16T11:05:47;26.60;77.20
22006;DHT22;11167;46.988;15.470;2023-07-16T11:07:49;26.60;77.10
22006;DHT22;11167;46.988;15.470;2023-07-16T11:09:53;26.70;77.20
22006;DHT22;11167;46.988;15.470;2023-07-16T11:11:54;26.70;77.20
22006;DHT22;11167;46.988;15.470;2023-07-16T11:13:55;26.70;78.20
22006;DHT22;11167;46.988;15.470;2023-07-16T11:16:09;26.80;77.30
22006;DHT22;11167;46.988;15.470;2023-07-16T11:18:10;26.80;78.10
22006;DHT22;11167;46.988;15.470;2023-07-16T11:20:12;26.80;77.20
22006;DHT22;11167;46.988;15.470;2023-07-16T11:22:14;26.90;77.40
22006;DHT22;11167;46.988;15.470;2023-07-16T11:24:16;26.90;77.40
22006;DHT22;11167;46.988;15.470;2023-07-16T11:26:17;26.90;77.30
22006;DHT22;11167;46.988;15.470;2023-07-16T11:28:18;27.00;77.40
22006;DHT22;11167;46.988;15.470;2023-07-16T11:30:22;27.00;77.30
22006;DHT22;11167;46.988;15.470;2023-07-16T11:32:45;27.10;77.50
22006;DHT22;11167;46.988;15.470;2023-07-16T11:34:54;27.10;77.50
22006;DHT22;11167;46.988;15.470;2023-07-16T11:37:10;27.20;77.50
22006;DHT22;11167;46.988;15.470;2023-07-16T11:39:12;27.20;77.60
22006;DHT22;11167;46.988;15.470;2023-07-16T11:41:13;27.20;77.60
22006;DHT22;11167;46.988;15.470;2023-07-16T11:43:14;27.30;77.70
22006;DHT22;11167;46.988;15.470;2023-07-16T11:45:24;27.30;77.70
22006;DHT22;11167;46.988;15.470;2023-07-16T11:47:28;27.30;77.70
22006;DHT22;11167;46.988;15.470;2023-07-16T11:49:29;27.40;77.70
22006;DHT22;11167;46.988;15.470;2023-07-16T11:51:30;27.40;77.70
22006;DHT22;11167;46.988;15.470;2023-07-16T11:53:32;27.40;77.70
22006;DHT22;11167;46.988;15.470;2023-07-16T11:55:33;27.50;77.70
22006;DHT22;11167;46.988;15.470;2023-07-16T11:57:35;27.60;77.80
22006;DHT22;11167;46.988;15.470;2023-07-16T11:59:36;27.60;77.80
22006;DHT22;11167;46.988;15.470;2023-07-16T12:01:37;27.70;77.80
22006;DHT22;11167;46.988;15.470;2023-07-16T12:03:38;27.70;77.80
22006;DHT22;11167;46.988;15.470;2023-07-16T12:05:39;27.70;77.80
22006;DHT22;11167;46.988;15.470;2023-07-16T12:07:40;27.70;77.80
22006;DHT22;11167;46.988;15.470;2023-07-16T12:09:42;27.80;77.90
22006;DHT22;11167;46.988;15.470;2023-07-16T12:11:43;27.80;77.90
22006;DHT22;11167;46.988;15.470;2023-07-16T12:13:44;27.90;78.80
22006;DHT22;11167;46.988;15.470;2023-07-16T12:15:46;27.90;78.50
22006;DHT22;11167;46.988;15.470;2023-07-16T12:17:47;28.00;78.00
22006;DHT22;11167;46.988;15.470;2023-07-16T12:19:48;28.00;78.00
22006;DHT22;11167;46.988;15.470;2023-07-16T12:21:50;28.00;78.00
22006;DHT22;11167;46.988;15.470;2023-07-16T12:23:51;28.00;78.50
22006;DHT22;11167;46.988;15.470;2023-07-16T12:25:52;28.10;78.90
22006;DHT22;11167;46.988;15.470;2023-07-16T12:27:53;28.20;78.10
22006;DHT22;11167;46.988;15.470;2023-07-16T12:29:54;28.20;78.10
22006;DHT22;11167;46.988;15.470;2023-07-16T12:31:55;28.20;78.10
22006;DHT22;11167;46.988;15.470;2023-07-16T12:33:56;28.20;78.10
22006;DHT22;11167;46.988;15.470;2023-07-16T12:35:57;28.30;78.10
22006;DHT22;11167;46.988;15.470;2023-07-16T12:37:58;28.30;78.00
22006;DHT22;11167;46.988;15.470;2023-07-16T12:39:59;28.30;78.10
22006;DHT22;11167;46.988;15.470;2023-07-16T12:42:00;28.40;78.10
22006;DHT22;11167;46.988;15.470;2023-07-16T12:44:01;28.40;78.10
22006;DHT22;11167;46.988;15.470;2023-07-16T12:46:04;28.40;78.10